Four Corners Regional Airport
KFMN : rendu visible

Aérodrome :











RETROUVEZ-NOUS SUR...

 
LOGIN :

S'inscrire | Disclaimer

   EN    FR    IT 

 









Légende :    VFR   VFR Marginal   IFR   IFR Intensif   IFR Très Intensif
Visi : 
Plafond : 
>= 8 km
>= 3000ft
5 à 8 km
1000 à 3000 ft
1500m à 5 km
500 à 1000 ft
800 à 1500m
200 à 500 ft
< 800m
< 200 ft
Symboles :   Orages  Brouillard  Fortes neiges  Fortes précipitations  Vent > 20 kt






- Altitude de l'aérodrome : 5506 ft


KFMN - Four Corners Regional

DERNIER METAR :
  • 171753Z 25018G25KT 10SM FEW065 06/M01 A3001 RMK AO2 SLP163 60000 T00611011 10061 20011 53002

METARs EXPIRÉS :
  • 171653Z 25008KT 10SM SCT050 BKN060 OVC070 04/00 A3002 RMK AO2 RAB05E29 SLP170 P0000 T00390000
  • 171553Z 01003KT 10SM OVC060 03/00 A2999 RMK AO2 SLP164 T00280000

TAF KFMN
Valide du 17 à 18h jusqu'au 18 à 18h UTC


171743Z 1718/1818 25010G18KT P6SM FEW035 BKN060
FM171900 28018G30KT P6SM SCT060
FM180200 31010KT P6SM FEW250
FM180800 VRB05KT P6SM FEW250
FM181500 09006KT P6SM FEW250



MET'MAP, la Météo Aéronautique d'un coup d'oeil ! - Copyright ORBIFLY Décembre 2007 - Disclaimer

ORBIFLY MET'MAP TEAM :

Programmation & Développement : Alexandra Zaïnal
Sur une idée originale de : Baudouin d'Aumeries
Assistance à la programmation : Marc-Olivier Méhu
Soutien technique & logistique : Manuel Goepfert

Contact : metmap@orbifly.com




SOURCES & CREDITS :

   NOAA       Earth
Advisory